CW8014 Weather Reports


Display with metric or nautical units.
time (UTC)temp
F
wind
direction
speed
MPH
gust
MPH
rain 1hr
in
rain 24hr
in
rain mn
in
humidity
%
barometer
mb
20200711205404 53 330 0.0 1.0 0.00 0.06 0.06 92 1025.5
20200711201405 53 330 0.0 1.0 0.00 0.06 0.06 90 1025.2
20200711200405 54 330 0.0 1.0 0.00 0.06 0.06 90 1025.1
20200711193405 56 330 1.0 1.0 0.00 0.06 0.06 84 1024.9
20200711191407 58 330 0.0 1.0 0.00 0.06 0.06 79 1024.8
20200711190405 58 330 1.0 2.0 0.00 0.06 0.06 77 1024.7
20200711183405 61 343 3.0 4.0 0.00 0.06 0.06 69 1024.6
20200711182405 62 344 4.0 8.0 0.00 0.06 0.06 68 1024.5
20200711181405 62 355 3.0 5.0 0.00 0.06 0.06 69 1024.6
20200711180409 62 22 4.0 9.0 0.00 0.06 0.06 68 1024.5
20200711175405 62 313 4.0 8.0 0.00 0.06 0.06 69 1024.5
20200711174406 62 355 4.0 9.0 0.00 0.06 0.06 68 1024.5
20200711173405 63 325 6.0 10.0 0.00 0.06 0.06 65 1024.3
20200711170406 63 325 6.0 10.0 0.00 0.06 0.06 67 1024.2
20200711165406 63 355 5.0 10.0 0.01 0.06 0.06 74 1024.0
20200711164406 61 317 2.0 3.0 0.01 0.06 0.06 82 1024.1
20200711163406 59 309 2.0 4.0 0.01 0.06 0.06 83 1024.1
20200711161406 60 314 4.0 9.0 0.01 0.06 0.06 81 1024.1
20200711160407 60 325 6.0 9.0 0.01 0.06 0.06 77 1024.1
20200711155406 61 308 6.0 10.0 0.00 0.06 0.06 74 1024.2
20200711154406 63 302 8.0 12.0 0.00 0.06 0.06 72 1024.1
20200711151408 62 325 5.0 8.0 0.00 0.06 0.06 75 1024.0
20200711144410 62 329 5.0 9.0 0.00 0.06 0.06 76 1023.8
20200711143406 62 326 5.0 9.0 0.00 0.06 0.06 71 1023.7
20200711142407 63 326 6.0 10.0 0.00 0.06 0.06 68 1023.8
20200711135407 65 318 8.0 14.0 0.01 0.06 0.06 67 1023.8
20200711131407 65 316 8.0 12.0 0.00 0.05 0.05 63 1023.4
20200711130408 66 360 6.0 12.0 0.00 0.05 0.05 67 1023.3
20200711125407 64 340 6.0 15.0 0.00 0.05 0.05 70 1023.3
20200711124407 63 270 4.0 9.0 0.00 0.05 0.05 69 1023.3
20200711121410 62 300 2.0 6.0 0.00 0.05 0.05 78 1023.2
20200711113411 62 215 4.0 11.0 0.05 0.06 0.05 81 1023.0
20200711112407 62 171 1.0 4.0 0.05 0.06 0.05 83 1023.0
20200711111408 60 221 1.0 3.0 0.05 0.06 0.05 88 1023.0
20200711110408 57 237 1.0 3.0 0.05 0.06 0.05 89 1023.0
20200711105413 56 313 1.0 5.0 0.05 0.06 0.05 87 1022.9
20200711103415 65 293 11.0 11.0 0.00 0.02 0.00 68 1022.7
20200711102410 63 318 8.0 8.0 0.00 0.02 0.00 70 1022.7
20200711101411 62 275 5.0 9.0 0.00 0.02 0.00 73 1022.7
20200711095408 63 303 6.0 11.0 0.00 0.02 0.00 69 1022.5
20200711094408 64 253 8.0 16.0 0.00 0.02 0.00 69 1022.5
20200711093408 61 173 4.0 14.0 0.00 0.02 0.00 74 1022.2
20200711092408 62 241 2.0 7.0 0.00 0.02 0.00 72 1022.2
20200711090408 63 289 5.0 10.0 0.00 0.02 0.00 71 1022.2
20200711084409 61 290 4.0 10.0 0.00 0.02 0.00 74 1022.2
20200711082409 61 264 6.0 11.0 0.00 0.02 0.00 75 1022.1
20200711075409 59 234 5.0 9.0 0.00 0.02 0.00 81 1022.0
20200711071409 57 302 4.0 10.0 0.00 0.02 0.00 87 1021.8
20200711070409 57 263 3.0 9.0 0.00 0.02 0.00 89 1021.7
20200711063410 55 266 3.0 5.0 0.00 0.02 0.00 93 1021.7
20200711062409 55 229 2.0 6.0 0.00 0.02 0.00 92 1021.6
20200711060409 55 288 3.0 7.0 0.00 0.02 0.00 92 1021.4
20200711055410 54 277 2.0 6.0 0.00 0.03 0.00 92 1021.4
20200711054410 54 267 2.0 6.0 0.00 0.03 0.00 92 1021.3
20200711052410 53 216 3.0 8.0 0.00 0.03 0.00 93 1021.2
20200711050400 52 267 2.0 7.0 0.00 0.03 0.00 94 1021.0
20200711045400 51 251 2.0 4.0 0.00 0.10 0.00 94 1021.0
20200711044400 51 259 2.0 4.0 0.00 0.10 0.00 94 1020.9
20200711043401 51 182 2.0 5.0 0.00 0.10 0.00 94 1020.9
20200711042400 51 246 1.0 4.0 0.00 0.10 0.00 94 1020.7
20200711035401 50 227 1.0 4.0 0.00 0.14 0.00 96 1020.5
20200711034400 49 234 1.0 2.0 0.00 0.14 0.00 96 1020.4
20200711033400 49 234 1.0 2.0 0.00 0.14 0.00 96 1020.3
20200711032400 49 234 0.0 2.0 0.00 0.14 0.00 96 1020.3
20200711031400 48 234 1.0 2.0 0.00 0.14 0.00 96 1020.1
20200711024400 47 240 1.0 3.0 0.00 0.19 0.00 97 1019.9
20200711023401 47 218 1.0 2.0 0.00 0.19 0.00 96 1019.9
20200711022401 47 218 2.0 3.0 0.00 0.19 0.00 96 1019.8
20200711015401 47 217 2.0 4.0 0.00 0.20 0.00 95 1019.7
20200711012401 47 219 1.0 3.0 0.00 0.20 0.00 95 1019.7
20200711010401 48 229 1.0 3.0 0.00 0.20 0.00 94 1019.5
20200711005402 48 245 1.0 3.0 0.00 0.24 0.00 94 1019.5
20200711000403 50 235 1.0 2.0 0.00 0.24 0.00 93 1019.1
20200710234403 49 244 3.0 5.0 0.00 0.27 0.00 93 1019.0
20200710232403 49 284 3.0 6.0 0.00 0.27 0.00 93 1018.8
20200710231402 49 263 2.0 4.0 0.00 0.27 0.00 93 1018.7
20200710230402 49 254 3.0 4.0 0.00 0.27 0.00 93 1018.7
20200710225402 49 246 1.0 2.0 0.00 0.28 0.00 93 1018.6
20200710224402 50 246 1.0 3.0 0.00 0.28 0.00 92 1018.5
20200710223405 50 245 2.0 4.0 0.00 0.28 0.00 92 1018.3
20200710221405 50 246 2.0 4.0 0.00 0.28 0.00 93 1018.2
20200710215402 50 245 0.0 1.0 0.00 0.29 0.29 92 1018.0
20200710214402 51 246 1.0 3.0 0.00 0.29 0.29 91 1017.9
20200710213404 51 254 2.0 4.0 0.00 0.29 0.29 90 1017.8